sensor_id;sensor_type;location;lat;lon;timestamp;pressure;altitude;pressure_sealevel;temperature;humidity
48968;BME280;46511;53.148;8.204;2023-02-13T00:00:03;103858.69;;;10.27;100.00
48968;BME280;46511;53.148;8.204;2023-02-13T00:02:36;103858.63;;;10.36;100.00
48968;BME280;46511;53.148;8.204;2023-02-13T00:05:08;103856.91;;;10.34;100.00
48968;BME280;46511;53.148;8.204;2023-02-13T00:07:39;103851.50;;;10.44;100.00
48968;BME280;46511;53.148;8.204;2023-02-13T00:10:10;103844.41;;;10.45;100.00
48968;BME280;46511;53.148;8.204;2023-02-13T00:12:42;103841.75;;;10.45;100.00
48968;BME280;46511;53.148;8.204;2023-02-13T00:15:13;103850.59;;;10.45;100.00
48968;BME280;46511;53.148;8.204;2023-02-13T00:17:44;103847.91;;;10.50;100.00
48968;BME280;46511;53.148;8.204;2023-02-13T00:20:15;103847.00;;;10.51;100.00
48968;BME280;46511;53.148;8.204;2023-02-13T00:22:49;103847.00;;;10.51;100.00
48968;BME280;46511;53.148;8.204;2023-02-13T00:25:21;103840.94;;;10.35;100.00
48968;BME280;46511;53.148;8.204;2023-02-13T00:27:52;103844.44;;;10.40;100.00
48968;BME280;46511;53.148;8.204;2023-02-13T00:30:23;103845.38;;;10.33;100.00
48968;BME280;46511;53.148;8.204;2023-02-13T00:32:55;103836.44;;;10.40;100.00
48968;BME280;46511;53.148;8.204;2023-02-13T00:35:26;103834.75;;;10.35;100.00
48968;BME280;46511;53.148;8.204;2023-02-13T00:37:57;103831.16;;;10.37;100.00
48968;BME280;46511;53.148;8.204;2023-02-13T00:40:28;103832.06;;;10.36;100.00
48968;BME280;46511;53.148;8.204;2023-02-13T00:43:00;103826.75;;;10.36;100.00
48968;BME280;46511;53.148;8.204;2023-02-13T00:45:31;103824.13;;;10.33;100.00
48968;BME280;46511;53.148;8.204;2023-02-13T00:48:02;103824.09;;;10.36;100.00
48968;BME280;46511;53.148;8.204;2023-02-13T00:50:34;103818.78;;;10.36;100.00
48968;BME280;46511;53.148;8.204;2023-02-13T00:53:05;103817.97;;;10.25;100.00
48968;BME280;46511;53.148;8.204;2023-02-13T00:55:37;103826.00;;;10.11;100.00
48968;BME280;46511;53.148;8.204;2023-02-13T00:58:08;103816.19;;;10.21;100.00
48968;BME280;46511;53.148;8.204;2023-02-13T01:00:39;103828.56;;;10.28;100.00
48968;BME280;46511;53.148;8.204;2023-02-13T01:03:11;103825.06;;;10.20;100.00
48968;BME280;46511;53.148;8.204;2023-02-13T01:05:43;103823.38;;;10.07;100.00
48968;BME280;46511;53.148;8.204;2023-02-13T01:08:15;103829.56;;;10.07;100.00
48968;BME280;46511;53.148;8.204;2023-02-13T01:10:48;103831.31;;;10.10;100.00
48968;BME280;46511;53.148;8.204;2023-02-13T01:13:20;103831.25;;;10.22;100.00
48968;BME280;46511;53.148;8.204;2023-02-13T01:15:51;103834.81;;;10.25;100.00
48968;BME280;46511;53.148;8.204;2023-02-13T01:18:22;103832.16;;;10.25;100.00
48968;BME280;46511;53.148;8.204;2023-02-13T01:20:58;103832.97;;;10.30;100.00
48968;BME280;46511;53.148;8.204;2023-02-13T01:23:40;103831.28;;;10.16;100.00
48968;BME280;46511;53.148;8.204;2023-02-13T01:28:54;103829.47;;;10.19;100.00
48968;BME280;46511;53.148;8.204;2023-02-13T01:31:25;103823.28;;;10.25;100.00
48968;BME280;46511;53.148;8.204;2023-02-13T01:33:57;103829.50;;;10.25;100.00
48968;BME280;46511;53.148;8.204;2023-02-13T01:36:29;103833.06;;;10.12;100.00
48968;BME280;46511;53.148;8.204;2023-02-13T01:39:00;103831.34;;;10.02;100.00
48968;BME280;46511;53.148;8.204;2023-02-13T01:41:31;103822.47;;;10.09;100.00
48968;BME280;46511;53.148;8.204;2023-02-13T01:44:03;103814.56;;;9.98;100.00
48968;BME280;46511;53.148;8.204;2023-02-13T01:46:54;103811.00;;;10.02;100.00
48968;BME280;46511;53.148;8.204;2023-02-13T01:49:25;103817.16;;;10.08;100.00
48968;BME280;46511;53.148;8.204;2023-02-13T01:51:57;103819.91;;;9.95;100.00
48968;BME280;46511;53.148;8.204;2023-02-13T01:54:28;103817.25;;;9.97;100.00
48968;BME280;46511;53.148;8.204;2023-02-13T01:57:04;103812.78;;;10.00;100.00
48968;BME280;46511;53.148;8.204;2023-02-13T01:59:48;103809.22;;;10.01;100.00
48968;BME280;46511;53.148;8.204;2023-02-13T02:02:22;103799.53;;;9.97;100.00
48968;BME280;46511;53.148;8.204;2023-02-13T02:04:54;103799.50;;;10.05;100.00
48968;BME280;46511;53.148;8.204;2023-02-13T02:07:26;103797.72;;;10.02;100.00
48968;BME280;46511;53.148;8.204;2023-02-13T02:10:03;103806.53;;;10.09;100.00
48968;BME280;46511;53.148;8.204;2023-02-13T02:12:42;103802.94;;;10.16;100.00
48968;BME280;46511;53.148;8.204;2023-02-13T02:15:19;103800.28;;;10.18;100.00
48968;BME280;46511;53.148;8.204;2023-02-13T02:17:51;103802.06;;;10.16;100.00
48968;BME280;46511;53.148;8.204;2023-02-13T02:20:35;103800.28;;;10.18;100.00
48968;BME280;46511;53.148;8.204;2023-02-13T02:34:36;103797.59;;;10.19;100.00
48968;BME280;46511;53.148;8.204;2023-02-13T02:37:27;103795.84;;;10.17;100.00
48968;BME280;46511;53.148;8.204;2023-02-13T02:43:13;103790.56;;;10.15;100.00
48968;BME280;46511;53.148;8.204;2023-02-13T02:46:06;103784.38;;;10.12;100.00
48968;BME280;46511;53.148;8.204;2023-02-13T02:48:54;103779.94;;;10.11;100.00
48968;BME280;46511;53.148;8.204;2023-02-13T02:57:38;103764.13;;;9.95;100.00
48968;BME280;46511;53.148;8.204;2023-02-13T03:00:36;103765.00;;;9.93;100.00
48968;BME280;46511;53.148;8.204;2023-02-13T03:03:29;103775.63;;;9.94;100.00
48968;BME280;46511;53.148;8.204;2023-02-13T03:06:22;103766.78;;;9.92;100.00
48968;BME280;46511;53.148;8.204;2023-02-13T03:09:00;103770.38;;;9.88;100.00
48968;BME280;46511;53.148;8.204;2023-02-13T03:11:55;103766.75;;;9.98;100.00
48968;BME280;46511;53.148;8.204;2023-02-13T03:14:45;103768.50;;;10.06;100.00
48968;BME280;46511;53.148;8.204;2023-02-13T03:17:17;103764.09;;;10.00;100.00
48968;BME280;46511;53.148;8.204;2023-02-13T03:23:36;103757.88;;;10.02;100.00
48968;BME280;46511;53.148;8.204;2023-02-13T03:29:20;103760.50;;;10.07;100.00
48968;BME280;46511;53.148;8.204;2023-02-13T03:32:41;103749.00;;;10.03;100.00
48968;BME280;46511;53.148;8.204;2023-02-13T03:41:17;103755.19;;;10.07;100.00
48968;BME280;46511;53.148;8.204;2023-02-13T03:47:01;103754.41;;;9.96;100.00
48968;BME280;46511;53.148;8.204;2023-02-13T03:49:46;103750.03;;;9.86;100.00
48968;BME280;46511;53.148;8.204;2023-02-13T03:55:34;103748.25;;;9.83;100.00
48968;BME280;46511;53.148;8.204;2023-02-13T03:58:31;103749.97;;;9.92;100.00
48968;BME280;46511;53.148;8.204;2023-02-13T04:01:26;103746.44;;;9.93;100.00
48968;BME280;46511;53.148;8.204;2023-02-13T04:06:44;103749.06;;;9.97;100.00
48968;BME280;46511;53.148;8.204;2023-02-13T04:09:25;103757.88;;;10.06;100.00
48968;BME280;46511;53.148;8.204;2023-02-13T04:14:49;103765.00;;;9.94;100.00
48968;BME280;46511;53.148;8.204;2023-02-13T04:17:32;103763.22;;;9.99;100.00
48968;BME280;46511;53.148;8.204;2023-02-13T04:20:09;103766.78;;;9.95;100.00
48968;BME280;46511;53.148;8.204;2023-02-13T04:22:42;103771.19;;;9.99;100.00
48968;BME280;46511;53.148;8.204;2023-02-13T04:25:17;103770.25;;;10.03;100.00
48968;BME280;46511;53.148;8.204;2023-02-13T04:27:50;103772.91;;;10.07;100.00
48968;BME280;46511;53.148;8.204;2023-02-13T04:30:16;103772.00;;;10.08;100.00
48968;BME280;46511;53.148;8.204;2023-02-13T04:32:47;103769.41;;;10.00;100.00
48968;BME280;46511;53.148;8.204;2023-02-13T04:35:19;103765.81;;;10.04;100.00
48968;BME280;46511;53.148;8.204;2023-02-13T04:37:50;103774.72;;;9.98;100.00
48968;BME280;46511;53.148;8.204;2023-02-13T04:40:16;103775.69;;;9.85;100.00
48968;BME280;46511;53.148;8.204;2023-02-13T04:42:48;103772.06;;;9.98;100.00
48968;BME280;46511;53.148;8.204;2023-02-13T04:45:19;103774.69;;;10.05;100.00
48968;BME280;46511;53.148;8.204;2023-02-13T04:47:51;103775.56;;;10.08;100.00
48968;BME280;46511;53.148;8.204;2023-02-13T04:50:19;103770.22;;;10.10;100.00
48968;BME280;46511;53.148;8.204;2023-02-13T04:52:52;103771.97;;;10.11;100.00
48968;BME280;46511;53.148;8.204;2023-02-13T04:55:26;103767.56;;;10.10;100.00
48968;BME280;46511;53.148;8.204;2023-02-13T04:57:58;103759.59;;;10.10;100.00
48968;BME280;46511;53.148;8.204;2023-02-13T05:00:29;103762.28;;;10.07;100.00
48968;BME280;46511;53.148;8.204;2023-02-13T05:03:04;103761.31;;;10.14;100.00
48968;BME280;46511;53.148;8.204;2023-02-13T05:05:39;103765.78;;;10.10;100.00
48968;BME280;46511;53.148;8.204;2023-02-13T05:08:10;103761.41;;;10.05;100.00
48968;BME280;46511;53.148;8.204;2023-02-13T05:10:42;103756.97;;;10.07;100.00
48968;BME280;46511;53.148;8.204;2023-02-13T05:13:13;103763.19;;;10.06;100.00
48968;BME280;46511;53.148;8.204;2023-02-13T05:15:47;103766.69;;;10.09;100.00
48968;BME280;46511;53.148;8.204;2023-02-13T05:18:18;103775.56;;;10.07;100.00
48968;BME280;46511;53.148;8.204;2023-02-13T05:20:45;103770.16;;;10.22;100.00
48968;BME280;46511;53.148;8.204;2023-02-13T05:23:36;103773.72;;;10.24;100.00
48968;BME280;46511;53.148;8.204;2023-02-13T05:26:07;103775.47;;;10.25;100.00
48968;BME280;46511;53.148;8.204;2023-02-13T05:28:38;103778.16;;;10.17;100.00
48968;BME280;46511;53.148;8.204;2023-02-13T05:31:28;103779.00;;;10.19;100.00
48968;BME280;46511;53.148;8.204;2023-02-13T05:33:59;103772.84;;;10.16;100.00
48968;BME280;46511;53.148;8.204;2023-02-13T05:36:31;103776.47;;;10.02;100.00
48968;BME280;46511;53.148;8.204;2023-02-13T05:39:02;103771.06;;;10.24;100.00
48968;BME280;46511;53.148;8.204;2023-02-13T05:41:29;103768.31;;;10.30;100.00
48968;BME280;46511;53.148;8.204;2023-02-13T05:44:00;103775.41;;;10.34;100.00
48968;BME280;46511;53.148;8.204;2023-02-13T05:46:31;103775.41;;;10.34;100.00
48968;BME280;46511;53.148;8.204;2023-02-13T05:49:03;103765.69;;;10.27;100.00
48968;BME280;46511;53.148;8.204;2023-02-13T05:51:34;103778.91;;;10.36;100.00
48968;BME280;46511;53.148;8.204;2023-02-13T05:54:06;103774.56;;;10.20;100.00
48968;BME280;46511;53.148;8.204;2023-02-13T05:56:38;103775.44;;;10.28;100.00
48968;BME280;46511;53.148;8.204;2023-02-13T05:59:09;103774.47;;;10.37;100.00
48968;BME280;46511;53.148;8.204;2023-02-13T06:01:40;103772.75;;;10.34;100.00
48968;BME280;46511;53.148;8.204;2023-02-13T06:04:11;103764.84;;;10.25;100.00
48968;BME280;46511;53.148;8.204;2023-02-13T06:06:43;103777.16;;;10.32;100.00
48968;BME280;46511;53.148;8.204;2023-02-13T06:09:15;103787.75;;;10.38;100.00
48968;BME280;46511;53.148;8.204;2023-02-13T06:11:46;103785.16;;;10.29;100.00
48968;BME280;46511;53.148;8.204;2023-02-13T06:14:17;103781.66;;;10.27;100.00
48968;BME280;46511;53.148;8.204;2023-02-13T06:16:49;103789.63;;;10.25;100.00
48968;BME280;46511;53.148;8.204;2023-02-13T06:19:20;103791.44;;;10.16;100.00
48968;BME280;46511;53.148;8.204;2023-02-13T06:21:46;103797.63;;;10.16;100.00
48968;BME280;46511;53.148;8.204;2023-02-13T06:24:18;103806.47;;;10.14;100.00
48968;BME280;46511;53.148;8.204;2023-02-13T06:26:49;103800.25;;;10.21;100.00
48968;BME280;46511;53.148;8.204;2023-02-13T06:29:20;103806.47;;;10.18;100.00
48968;BME280;46511;53.148;8.204;2023-02-13T06:31:51;103808.22;;;10.21;100.00
48968;BME280;46511;53.148;8.204;2023-02-13T06:34:24;103807.38;;;10.16;100.00
48968;BME280;46511;53.148;8.204;2023-02-13T06:36:55;103810.03;;;10.13;100.00
48968;BME280;46511;53.148;8.204;2023-02-13T06:39:26;103814.44;;;10.14;100.00
48968;BME280;46511;53.148;8.204;2023-02-13T06:41:58;103820.66;;;10.17;100.00
48968;BME280;46511;53.148;8.204;2023-02-13T06:44:29;103818.91;;;10.12;100.00
48968;BME280;46511;53.148;8.204;2023-02-13T06:47:00;103830.41;;;10.17;100.00
48968;BME280;46511;53.148;8.204;2023-02-13T06:49:31;103814.44;;;10.20;100.00
48968;BME280;46511;53.148;8.204;2023-02-13T06:52:03;103822.44;;;10.15;100.00
48968;BME280;46511;53.148;8.204;2023-02-13T06:54:34;103818.00;;;10.13;100.00
48968;BME280;46511;53.148;8.204;2023-02-13T06:57:06;103814.44;;;10.23;100.00
48968;BME280;46511;53.148;8.204;2023-02-13T06:59:37;103827.72;;;10.20;100.00
48968;BME280;46511;53.148;8.204;2023-02-13T07:02:09;103821.53;;;10.18;100.00
48968;BME280;46511;53.148;8.204;2023-02-13T07:04:41;103817.97;;;10.22;100.00
48968;BME280;46511;53.148;8.204;2023-02-13T07:07:12;103818.13;;;9.96;100.00
48968;BME280;46511;53.148;8.204;2023-02-13T07:09:44;103824.28;;;10.06;100.00
48968;BME280;46511;53.148;8.204;2023-02-13T07:12:15;103819.78;;;10.17;100.00
48968;BME280;46511;53.148;8.204;2023-02-13T07:18:06;103824.22;;;10.10;100.00
48968;BME280;46511;53.148;8.204;2023-02-13T07:20:37;103823.41;;;10.00;100.00
48968;BME280;46511;53.148;8.204;2023-02-13T07:23:16;103826.91;;;10.09;100.00
48968;BME280;46511;53.148;8.204;2023-02-13T07:25:48;103826.84;;;10.24;100.00
48968;BME280;46511;53.148;8.204;2023-02-13T07:28:19;103825.94;;;10.22;100.00
48968;BME280;46511;53.148;8.204;2023-02-13T07:30:50;103820.72;;;10.02;100.00
48968;BME280;46511;53.148;8.204;2023-02-13T07:33:22;103825.97;;;10.17;100.00
48968;BME280;46511;53.148;8.204;2023-02-13T07:35:54;103825.94;;;10.19;100.00
48968;BME280;46511;53.148;8.204;2023-02-13T07:38:25;103829.50;;;10.18;100.00
48968;BME280;46511;53.148;8.204;2023-02-13T07:40:57;103825.03;;;10.21;100.00
48968;BME280;46511;53.148;8.204;2023-02-13T07:43:34;103833.06;;;10.12;100.00
48968;BME280;46511;53.148;8.204;2023-02-13T07:46:05;103834.81;;;10.22;100.00
48968;BME280;46511;53.148;8.204;2023-02-13T07:48:37;103826.84;;;10.24;100.00
48968;BME280;46511;53.148;8.204;2023-02-13T07:51:08;103830.38;;;10.26;100.00
48968;BME280;46511;53.148;8.204;2023-02-13T07:53:39;103828.59;;;10.25;100.00
48968;BME280;46511;53.148;8.204;2023-02-13T07:56:10;103833.91;;;10.25;100.00
48968;BME280;46511;53.148;8.204;2023-02-13T07:58:42;103830.38;;;10.23;100.00
48968;BME280;46511;53.148;8.204;2023-02-13T08:01:15;103826.84;;;10.24;100.00
48968;BME280;46511;53.148;8.204;2023-02-13T08:03:47;103828.50;;;10.39;100.00
48968;BME280;46511;53.148;8.204;2023-02-13T08:06:23;103826.66;;;10.48;100.00
48968;BME280;46511;53.148;8.204;2023-02-13T08:08:54;103818.72;;;10.44;100.00
48968;BME280;46511;53.148;8.204;2023-02-13T08:11:44;103819.59;;;10.41;100.00
48968;BME280;46511;53.148;8.204;2023-02-13T08:14:25;103833.72;;;10.52;100.00
48968;BME280;46511;53.148;8.204;2023-02-13T08:16:57;103829.19;;;10.65;100.00
48968;BME280;46511;53.148;8.204;2023-02-13T08:19:30;103830.97;;;10.63;100.00
48968;BME280;46511;53.148;8.204;2023-02-13T08:22:02;103830.25;;;10.44;100.00
48968;BME280;46511;53.148;8.204;2023-02-13T08:24:33;103821.44;;;10.36;100.00
48968;BME280;46511;53.148;8.204;2023-02-13T08:27:05;103827.47;;;10.58;100.00
48968;BME280;46511;53.148;8.204;2023-02-13T08:29:36;103828.41;;;10.49;100.00
48968;BME280;46511;53.148;8.204;2023-02-13T08:32:07;103831.13;;;10.42;100.00
48968;BME280;46511;53.148;8.204;2023-02-13T08:34:39;103833.72;;;10.54;100.00
48968;BME280;46511;53.148;8.204;2023-02-13T08:37:10;103832.97;;;10.35;100.00
48968;BME280;46511;53.148;8.204;2023-02-13T08:39:41;103833.63;;;10.65;100.00
48968;BME280;46511;53.148;8.204;2023-02-13T08:42:12;103828.41;;;10.49;100.00
48968;BME280;46511;53.148;8.204;2023-02-13T08:44:44;103836.28;;;10.65;100.00
48968;BME280;46511;53.148;8.204;2023-02-13T08:47:15;103831.81;;;10.68;100.00
48968;BME280;46511;53.148;8.204;2023-02-13T08:49:47;103825.69;;;10.57;100.00
48968;BME280;46511;53.148;8.204;2023-02-13T08:52:18;103823.88;;;10.65;100.00
48968;BME280;46511;53.148;8.204;2023-02-13T08:54:49;103827.19;;;10.88;100.00
48968;BME280;46511;53.148;8.204;2023-02-13T08:57:20;103827.34;;;10.72;100.00
48968;BME280;46511;53.148;8.204;2023-02-13T08:59:52;103831.81;;;10.67;100.00
48968;BME280;46511;53.148;8.204;2023-02-13T09:02:23;103834.53;;;10.59;100.00
48968;BME280;46511;53.148;8.204;2023-02-13T09:04:54;103842.53;;;10.57;100.00
48968;BME280;46511;53.148;8.204;2023-02-13T09:07:25;103847.91;;;10.48;100.00
48968;BME280;46511;53.148;8.204;2023-02-13T09:09:57;103839.84;;;10.59;100.00
48968;BME280;46511;53.148;8.204;2023-02-13T09:12:28;103840.69;;;10.66;100.00
48968;BME280;46511;53.148;8.204;2023-02-13T09:14:59;103841.38;;;10.91;100.00
48968;BME280;46511;53.148;8.204;2023-02-13T09:17:30;103838.78;;;10.81;100.00
48968;BME280;46511;53.148;8.204;2023-02-13T09:20:02;103844.19;;;10.74;100.00
48968;BME280;46511;53.148;8.204;2023-02-13T09:22:33;103844.94;;;10.85;100.00
48968;BME280;46511;53.148;8.204;2023-02-13T09:25:05;103844.22;;;10.71;100.00
48968;BME280;46511;53.148;8.204;2023-02-13T09:27:36;103855.16;;;10.19;100.00
48968;BME280;46511;53.148;8.204;2023-02-13T09:30:09;103846.19;;;10.41;100.00
48968;BME280;46511;53.148;8.204;2023-02-13T09:32:41;103851.22;;;10.78;100.00
48968;BME280;46511;53.148;8.204;2023-02-13T09:35:12;103845.91;;;10.81;100.00
48968;BME280;46511;53.148;8.204;2023-02-13T09:37:44;103850.88;;;11.14;100.00
48968;BME280;46511;53.148;8.204;2023-02-13T09:40:24;103847.00;;;10.51;100.00
48968;BME280;46511;53.148;8.204;2023-02-13T09:43:05;103841.59;;;10.65;100.00
48968;BME280;46511;53.148;8.204;2023-02-13T09:45:44;103843.50;;;10.46;100.00
48968;BME280;46511;53.148;8.204;2023-02-13T09:48:23;103851.50;;;10.44;100.00
48968;BME280;46511;53.148;8.204;2023-02-13T09:51:00;103847.03;;;10.48;100.00
48968;BME280;46511;53.148;8.204;2023-02-13T09:53:31;103847.88;;;10.54;100.00
48968;BME280;46511;53.148;8.204;2023-02-13T09:56:12;103839.81;;;10.65;100.00
48968;BME280;46511;53.148;8.204;2023-02-13T09:58:52;103846.31;;;10.26;100.00
48968;BME280;46511;53.148;8.204;2023-02-13T10:01:33;103854.22;;;10.35;100.00
48968;BME280;46511;53.148;8.204;2023-02-13T10:07:00;103849.72;;;10.46;100.00
48968;BME280;46511;53.148;8.204;2023-02-13T10:09:47;103853.16;;;10.57;100.00
48968;BME280;46511;53.148;8.204;2023-02-13T10:18:11;103856.06;;;10.22;100.00
48968;BME280;46511;53.148;8.204;2023-02-13T10:20:47;103852.09;;;10.81;100.00
48968;BME280;46511;53.148;8.204;2023-02-13T10:23:36;103847.50;;;10.97;100.00
48968;BME280;46511;53.148;8.204;2023-02-13T10:26:20;103861.91;;;10.70;100.00
48968;BME280;46511;53.148;8.204;2023-02-13T10:29:03;103858.72;;;11.28;100.00
48968;BME280;46511;53.148;8.204;2023-02-13T10:31:58;103854.16;;;11.41;100.00
48968;BME280;46511;53.148;8.204;2023-02-13T10:34:36;103858.63;;;11.39;100.00
48968;BME280;46511;53.148;8.204;2023-02-13T10:37:16;103853.84;;;10.79;100.00
48968;BME280;46511;53.148;8.204;2023-02-13T10:39:51;103851.84;;;11.06;100.00
48968;BME280;46511;53.148;8.204;2023-02-13T10:42:35;103859.25;;;10.72;100.00
48968;BME280;46511;53.148;8.204;2023-02-13T10:45:21;103867.44;;;10.41;100.00
48968;BME280;46511;53.148;8.204;2023-02-13T10:48:15;103865.03;;;11.20;100.00
48968;BME280;46511;53.148;8.204;2023-02-13T10:51:07;103861.56;;;11.11;100.00
48968;BME280;46511;53.148;8.204;2023-02-13T10:56:30;103851.13;;;10.87;100.00
48968;BME280;46511;53.148;8.204;2023-02-13T11:01:56;103846.81;;;11.61;100.00
48968;BME280;46511;53.148;8.204;2023-02-13T11:04:33;103843.41;;;11.50;100.00
48968;BME280;46511;53.148;8.204;2023-02-13T11:07:08;103838.72;;;11.69;100.00
48968;BME280;46511;53.148;8.204;2023-02-13T11:09:45;103825.44;;;11.64;100.00
48968;BME280;46511;53.148;8.204;2023-02-13T11:12:27;103825.53;;;11.58;100.00
48968;BME280;46511;53.148;8.204;2023-02-13T11:15:01;103820.34;;;11.48;100.00
48968;BME280;46511;53.148;8.204;2023-02-13T11:17:38;103818.19;;;11.03;100.00
48968;BME280;46511;53.148;8.204;2023-02-13T11:20:25;103814.50;;;11.15;100.00
48968;BME280;46511;53.148;8.204;2023-02-13T11:25:58;103801.56;;;10.80;100.00
48968;BME280;46511;53.148;8.204;2023-02-13T11:28:34;103801.31;;;11.78;100.00
48968;BME280;46511;53.148;8.204;2023-02-13T11:33:54;103797.06;;;10.86;100.00
48968;BME280;46511;53.148;8.204;2023-02-13T11:36:29;103801.38;;;10.98;100.00
48968;BME280;46511;53.148;8.204;2023-02-13T11:39:06;103800.16;;;11.30;100.00
48968;BME280;46511;53.148;8.204;2023-02-13T11:41:48;103804.56;;;11.31;100.00
48968;BME280;46511;53.148;8.204;2023-02-13T11:44:24;103803.50;;;12.12;100.00
48968;BME280;46511;53.148;8.204;2023-02-13T11:46:58;103799.25;;;11.31;100.00
48968;BME280;46511;53.148;8.204;2023-02-13T11:49:32;103796.22;;;10.83;100.00
48968;BME280;46511;53.148;8.204;2023-02-13T11:52:09;103803.44;;;11.52;100.00
48968;BME280;46511;53.148;8.204;2023-02-13T11:54:55;103795.75;;;11.26;100.00
48968;BME280;46511;53.148;8.204;2023-02-13T11:57:34;103809.47;;;11.64;100.00
48968;BME280;46511;53.148;8.204;2023-02-13T12:00:24;103806.06;;;11.56;100.00
48968;BME280;46511;53.148;8.204;2023-02-13T12:02:59;103805.41;;;11.34;100.00
48968;BME280;46511;53.148;8.204;2023-02-13T12:05:30;103802.94;;;11.18;100.00
48968;BME280;46511;53.148;8.204;2023-02-13T12:08:01;103798.44;;;11.24;100.00
48968;BME280;46511;53.148;8.204;2023-02-13T12:10:33;103790.53;;;11.16;100.00
48968;BME280;46511;53.148;8.204;2023-02-13T12:13:21;103792.34;;;11.14;100.00
48968;BME280;46511;53.148;8.204;2023-02-13T12:16:01;103794.44;;;10.85;100.00
48968;BME280;46511;53.148;8.204;2023-02-13T12:18:45;103789.72;;;11.11;100.00
48968;BME280;46511;53.148;8.204;2023-02-13T12:38:45;103773.81;;;11.78;100.00
48968;BME280;46511;53.148;8.204;2023-02-13T12:55:18;103756.63;;;12.00;100.00
48968;BME280;46511;53.148;8.204;2023-02-13T12:58:18;103751.03;;;12.17;100.00
48968;BME280;46511;53.148;8.204;2023-02-13T13:01:14;103757.88;;;11.73;100.00
48968;BME280;46511;53.148;8.204;2023-02-13T13:04:04;103764.34;;;11.54;100.00
48968;BME280;46511;53.148;8.204;2023-02-13T13:07:11;103754.38;;;11.00;100.00
48968;BME280;46511;53.148;8.204;2023-02-13T13:09:57;103753.63;;;11.60;100.00
48968;BME280;46511;53.148;8.204;2023-02-13T13:12:50;103763.16;;;11.78;100.00
48968;BME280;46511;53.148;8.204;2023-02-13T13:22:05;103744.38;;;11.21;100.00
48968;BME280;46511;53.148;8.204;2023-02-13T13:25:27;103746.25;;;11.12;100.00
48968;BME280;46511;53.148;8.204;2023-02-13T13:28:07;103744.66;;;10.96;100.00
48968;BME280;46511;53.148;8.204;2023-02-13T13:30:41;103736.91;;;11.50;100.00
48968;BME280;46511;53.148;8.204;2023-02-13T13:33:23;103737.06;;;11.39;100.00
48968;BME280;46511;53.148;8.204;2023-02-13T13:36:04;103736.19;;;11.36;100.00
48968;BME280;46511;53.148;8.204;2023-02-13T13:41:41;103726.31;;;11.44;100.00
48968;BME280;46511;53.148;8.204;2023-02-13T13:50:22;103725.16;;;10.96;100.00
48968;BME280;46511;53.148;8.204;2023-02-13T13:53:12;103721.13;;;11.35;100.00
48968;BME280;46511;53.148;8.204;2023-02-13T13:58:37;103715.63;;;11.49;100.00
48968;BME280;46511;53.148;8.204;2023-02-13T14:03:45;103716.50;;;11.49;100.00
48968;BME280;46511;53.148;8.204;2023-02-13T14:06:25;103710.94;;;10.98;100.00
48968;BME280;46511;53.148;8.204;2023-02-13T14:08:59;103715.50;;;10.87;100.00
48968;BME280;46511;53.148;8.204;2023-02-13T14:17:00;103721.34;;;11.20;100.00
48968;BME280;46511;53.148;8.204;2023-02-13T14:19:37;103721.13;;;11.35;100.00
48968;BME280;46511;53.148;8.204;2023-02-13T14:22:30;103715.81;;;11.35;100.00
48968;BME280;46511;53.148;8.204;2023-02-13T14:25:06;103710.22;;;10.84;100.00
48968;BME280;46511;53.148;8.204;2023-02-13T14:28:02;103709.59;;;10.59;100.00
48968;BME280;46511;53.148;8.204;2023-02-13T14:30:35;103707.34;;;11.02;100.00
48968;BME280;46511;53.148;8.204;2023-02-13T14:33:20;103709.00;;;11.12;100.00
48968;BME280;46511;53.148;8.204;2023-02-13T14:36:08;103695.22;;;10.77;100.00
48968;BME280;46511;53.148;8.204;2023-02-13T14:38:55;103694.41;;;10.70;100.00
48968;BME280;46511;53.148;8.204;2023-02-13T14:41:43;103693.31;;;10.88;100.00
48968;BME280;46511;53.148;8.204;2023-02-13T14:44:37;103689.78;;;10.87;100.00
48968;BME280;46511;53.148;8.204;2023-02-13T14:47:31;103697.97;;;10.72;100.00
48968;BME280;46511;53.148;8.204;2023-02-13T14:50:07;103690.00;;;10.68;100.00
48968;BME280;46511;53.148;8.204;2023-02-13T14:52:49;103684.69;;;10.68;100.00
48968;BME280;46511;53.148;8.204;2023-02-13T14:58:11;103674.91;;;10.73;100.00
48968;BME280;46511;53.148;8.204;2023-02-13T15:06:20;103673.69;;;10.98;100.00
48968;BME280;46511;53.148;8.204;2023-02-13T15:08:56;103669.78;;;11.27;100.00
48968;BME280;46511;53.148;8.204;2023-02-13T15:11:34;103679.84;;;11.03;100.00
48968;BME280;46511;53.148;8.204;2023-02-13T15:14:16;103670.94;;;11.09;100.00
48968;BME280;46511;53.148;8.204;2023-02-13T15:16:50;103671.09;;;10.95;100.00
48968;BME280;46511;53.148;8.204;2023-02-13T15:19:25;103672.94;;;10.90;100.00
48968;BME280;46511;53.148;8.204;2023-02-13T15:21:57;103669.06;;;11.14;100.00
48968;BME280;46511;53.148;8.204;2023-02-13T15:24:36;103675.19;;;11.21;100.00
48968;BME280;46511;53.148;8.204;2023-02-13T15:27:24;103675.47;;;11.01;100.00
48968;BME280;46511;53.148;8.204;2023-02-13T15:30:02;103673.69;;;11.01;100.00
48968;BME280;46511;53.148;8.204;2023-02-13T15:32:58;103673.75;;;10.95;100.00
48968;BME280;46511;53.148;8.204;2023-02-13T15:35:34;103668.72;;;10.71;100.00
48968;BME280;46511;53.148;8.204;2023-02-13T15:41:10;103672.13;;;10.82;100.00
48968;BME280;46511;53.148;8.204;2023-02-13T15:43:47;103670.59;;;10.63;100.00
48968;BME280;46511;53.148;8.204;2023-02-13T15:49:03;103674.19;;;10.55;100.00